X  Kiinni Metar Aviation säätiedot     EHAM Amsterdam Airport Schiphol
Lämpötila
14°C Lämpötila
10°C Kastepiste
77% Kosteus



Tuuli
21 KM/T
13 MPH
6 M/S
11 KTS



240°
LESL
Nykyiset olosuhteet

Kirkas Kirkas
Paine 1025.06 (hPa) - 30.27 (inHg)
Näkyvyys 6 (maili) - 9.7 (km)
Lentokenttä
Lentokentän koodi EHAM

Sijainti: Amsterdam Airport Schiphol
Etäisyys: 40 (km)

Metar:
EHAM 130425Z 24011KT CAVOK 14/10 Q1025 NOSIG

Aika: 13-04-2024 06:25 CEST